Carson City, Nevada
Current Conditions -  °F | °C
As of 4:55 AM on Saturday 25 Oct 2014 (Local Time) from KCXP Reporting Station
Clear Clear  
Wind Chill: 59°   Ceiling: Unl
Heat Index: 59°   Visibility: 10mi
Dew Point: 21°   Wind: 8mph
Humidity: 23%   Direction: 120°ESE
Pressure: 29.93"   Gusts: NA
Location:  39.16°N, 119.77°W
Report Text: KCXP 251155Z AUTO 12007KT 10SM CLR 15/M06 A2993 RMK AO2
Loading
Personal Weather Stations






























Interactive Weather Map
Tropical Storm Tracking
New forecast layout! Learn more

10-Day Weather Forecast

Advertisements
Track Severe Weather on mobile